You are not logged in, Click here to log in
阿道弗·蘇亞雷斯馬德里-巴拉哈斯機場MAD / LEMD 西班牙首都馬德里的主要國際機場
ICAO: LEMD Country: 西班牙首都馬德里的主要國際機場
Latitude: 40.4936 Longitude: -3.56676
Total Arrivals: 5 Total Departures: 5
Latest Arrival: A3686 (LGAV-LEMD)ALAN. LIU Latest Departure: FS23 (LEMD-LPPT)ALAN. LIU
Scenery:
METAR : LEMD 131000Z 23010KT 180V290 CAVOK 15/06 Q1015 WS R32L WS R32R NOSIG

阿道弗·蘇亞雷斯馬德里-巴拉哈斯機場MAD

You are accessing this site from IP address 100.26.176.182. Virtual Airline. CMS by phpVMS.Website designed by Zumeweb and edited by Theo Bearman.
There is 0 User(s) Online: | and 7 Guest(s) Online.
All information on this site is for fight simulation purposes only. This site is for flight logging for pilots of Virtual Airline&模擬飛行論壇 FlySim only.